createdAt,value
2022-09-14T00:01:24.649Z,3.17
2022-09-14T00:06:25.984Z,2.72
2022-09-14T00:08:54.877Z,2.80
2022-09-14T00:11:23.813Z,2.80
2022-09-14T00:13:51.252Z,3.30
2022-09-14T00:16:21.552Z,2.30
2022-09-14T00:19:05.995Z,2.62
2022-09-14T00:21:35.310Z,2.72
2022-09-14T00:24:02.794Z,2.87
2022-09-14T00:26:29.796Z,2.90
2022-09-14T00:28:58.440Z,2.85
2022-09-14T00:31:26.469Z,3.10
2022-09-14T00:33:53.851Z,2.97
2022-09-14T00:36:24.014Z,2.87
2022-09-14T00:38:51.725Z,3.10
2022-09-14T00:41:22.087Z,3.15
2022-09-14T00:44:00.630Z,3.22
2022-09-14T00:46:30.702Z,3.22
2022-09-14T00:49:00.500Z,3.40
2022-09-14T00:51:29.453Z,3.45
2022-09-14T00:53:56.564Z,3.90
2022-09-14T00:56:23.854Z,4.35
2022-09-14T00:58:52.158Z,3.85
2022-09-14T01:01:19.690Z,5.05
2022-09-14T01:03:47.198Z,5.10
2022-09-14T01:06:33.823Z,4.78
2022-09-14T01:09:27.093Z,5.32
2022-09-14T01:12:03.854Z,4.68
2022-09-14T01:14:56.131Z,4.78
2022-09-14T01:17:37.920Z,4.68
2022-09-14T01:20:14.367Z,4.25
2022-09-14T01:22:47.077Z,4.97
2022-09-14T01:25:52.011Z,4.03
2022-09-14T01:28:30.024Z,3.92
2022-09-14T01:30:59.003Z,4.07
2022-09-14T01:33:32.497Z,4.05
2022-09-14T01:36:02.192Z,4.20
2022-09-14T01:38:37.854Z,4.15
2022-09-14T01:41:08.822Z,3.12
2022-09-14T01:43:41.359Z,3.75
2022-09-14T01:46:13.751Z,4.32
2022-09-14T01:48:51.091Z,3.65
2022-09-14T01:51:24.086Z,3.35
2022-09-14T01:53:56.023Z,3.00
2022-09-14T01:56:26.310Z,5.40
2022-09-14T01:59:15.496Z,3.35
2022-09-14T02:02:17.498Z,3.20
2022-09-14T02:05:08.580Z,3.22
2022-09-14T02:07:37.399Z,3.12
2022-09-14T02:10:08.550Z,3.60
2022-09-14T02:12:36.330Z,3.42
2022-09-14T02:15:04.906Z,4.05
2022-09-14T02:17:32.265Z,3.25
2022-09-14T02:20:01.216Z,3.62
2022-09-14T02:22:29.630Z,4.03
2022-09-14T02:24:57.146Z,4.05
2022-09-14T02:27:24.898Z,4.70
2022-09-14T02:29:52.432Z,4.25
2022-09-14T02:32:41.578Z,4.40
2022-09-14T02:35:17.090Z,4.03
2022-09-14T02:38:01.844Z,3.78
2022-09-14T02:40:37.893Z,3.90
2022-09-14T02:43:21.087Z,3.90
2022-09-14T02:46:14.689Z,3.67
2022-09-14T02:48:48.597Z,4.00
2022-09-14T02:51:32.091Z,3.78
2022-09-14T02:54:12.220Z,3.92
2022-09-14T02:56:39.233Z,3.67
2022-09-14T02:59:06.735Z,3.95
2022-09-14T03:01:34.321Z,4.00
2022-09-14T03:04:01.618Z,3.37
2022-09-14T03:06:29.109Z,4.00
2022-09-14T03:08:56.236Z,4.32
2022-09-14T03:11:23.211Z,3.95
2022-09-14T03:13:50.555Z,3.90
2022-09-14T03:16:18.260Z,3.92
2022-09-14T03:18:45.489Z,3.75
2022-09-14T03:21:15.732Z,3.90
2022-09-14T03:23:47.938Z,3.70
2022-09-14T03:26:19.446Z,3.75
2022-09-14T03:28:53.019Z,4.20
2022-09-14T03:33:52.233Z,3.90
2022-09-14T03:36:20.147Z,4.12
2022-09-14T03:38:52.258Z,4.20
2022-09-14T03:41:20.364Z,3.85
2022-09-14T03:43:48.087Z,3.95
2022-09-14T03:46:23.380Z,4.10
2022-09-14T03:48:51.383Z,3.62
2022-09-14T03:51:18.624Z,4.18
2022-09-14T03:53:45.851Z,4.53
2022-09-14T03:56:16.659Z,3.95
2022-09-14T03:58:44.878Z,6.68
2022-09-14T04:01:14.831Z,4.28
2022-09-14T04:03:42.673Z,4.53
2022-09-14T04:06:10.351Z,4.32
2022-09-14T04:08:39.508Z,4.05
2022-09-14T04:11:18.953Z,4.25
2022-09-14T04:13:46.552Z,3.92
2022-09-14T04:16:14.882Z,3.70
2022-09-14T04:18:42.021Z,4.43
2022-09-14T04:21:19.567Z,3.83
2022-09-14T04:26:34.768Z,3.62
2022-09-14T04:29:02.090Z,4.35
2022-09-14T04:31:29.203Z,3.75
2022-09-14T04:33:57.101Z,4.00
2022-09-14T04:36:30.785Z,4.12
2022-09-14T04:38:59.584Z,4.80
2022-09-14T04:41:27.834Z,3.85
2022-09-14T04:43:55.991Z,5.07
2022-09-14T04:46:25.819Z,4.00
2022-09-14T04:48:53.364Z,4.12
2022-09-14T04:51:26.912Z,4.05
2022-09-14T04:56:22.644Z,4.05
2022-09-14T04:58:54.570Z,4.32
2022-09-14T05:01:23.923Z,4.10
2022-09-14T05:03:51.688Z,4.12
2022-09-14T05:06:28.075Z,3.40
2022-09-14T05:08:56.059Z,3.80
2022-09-14T05:11:24.896Z,3.58
2022-09-14T05:13:52.074Z,3.62
2022-09-14T05:16:20.362Z,5.55
2022-09-14T05:18:48.481Z,4.50
2022-09-14T05:21:19.068Z,4.28
2022-09-14T05:23:47.282Z,3.78
2022-09-14T05:26:14.863Z,4.93
2022-09-14T05:28:41.917Z,4.00
2022-09-14T05:31:11.368Z,4.07
2022-09-14T05:33:38.587Z,5.60
2022-09-14T05:36:07.477Z,4.50
2022-09-14T05:38:37.990Z,5.32
2022-09-14T05:41:06.444Z,5.80
2022-09-14T05:43:33.951Z,4.62
2022-09-14T05:46:02.693Z,6.30
2022-09-14T05:48:39.926Z,5.80
2022-09-14T05:51:14.810Z,6.90
2022-09-14T05:53:42.809Z,4.72
2022-09-14T05:56:12.386Z,5.15
2022-09-14T05:58:40.502Z,5.80
2022-09-14T06:01:25.190Z,4.18
2022-09-14T06:03:57.042Z,4.07
2022-09-14T06:06:24.641Z,3.95
2022-09-14T06:08:54.031Z,4.43
2022-09-14T06:11:24.407Z,5.00
2022-09-14T06:13:51.638Z,4.10
2022-09-14T06:16:20.647Z,4.43
2022-09-14T06:18:48.910Z,4.22
2022-09-14T06:21:19.286Z,4.37
2022-09-14T06:23:47.307Z,4.15
2022-09-14T06:26:15.223Z,4.32
2022-09-14T06:28:42.414Z,4.50
2022-09-14T06:31:12.325Z,4.65
2022-09-14T06:33:46.194Z,3.85
2022-09-14T06:36:24.313Z,3.85
2022-09-14T06:38:52.223Z,4.18
2022-09-14T06:41:21.938Z,3.90
2022-09-14T06:43:49.676Z,3.67
2022-09-14T06:46:19.552Z,3.90
2022-09-14T06:48:55.589Z,4.28
2022-09-14T06:51:27.993Z,4.97
2022-09-14T06:53:57.087Z,5.00
2022-09-14T06:56:24.377Z,5.57
2022-09-14T06:58:53.189Z,4.25
2022-09-14T07:01:21.380Z,4.43
2022-09-14T07:03:50.135Z,4.55
2022-09-14T07:06:25.145Z,4.10
2022-09-14T07:08:53.591Z,3.67
2022-09-14T07:11:23.541Z,4.80
2022-09-14T07:13:50.609Z,4.45
2022-09-14T07:16:17.942Z,4.25
2022-09-14T07:18:44.936Z,4.72
2022-09-14T07:21:18.024Z,4.30
2022-09-14T07:23:46.368Z,5.22
2022-09-14T07:26:19.082Z,4.85
2022-09-14T07:28:49.454Z,4.67
2022-09-14T07:31:21.493Z,4.25
2022-09-14T07:33:51.783Z,5.22
2022-09-14T07:36:18.914Z,4.35
2022-09-14T07:38:52.551Z,4.37
2022-09-14T07:41:21.563Z,4.15
2022-09-14T07:43:50.245Z,4.37
2022-09-14T07:46:17.615Z,5.35
2022-09-14T07:48:45.002Z,3.87
2022-09-14T07:51:12.107Z,4.85
2022-09-14T07:53:42.855Z,4.03
2022-09-14T07:56:11.572Z,4.28
2022-09-14T07:58:39.036Z,4.18
2022-09-14T08:01:15.028Z,4.25
2022-09-14T08:03:43.580Z,4.82
2022-09-14T08:06:13.207Z,4.62
2022-09-14T08:08:42.819Z,4.05
2022-09-14T08:11:13.631Z,4.68
2022-09-14T08:13:42.972Z,4.50
2022-09-14T08:16:10.223Z,4.37
2022-09-14T08:18:37.677Z,4.20
2022-09-14T08:21:12.542Z,4.82
2022-09-14T08:23:40.078Z,4.62
2022-09-14T08:26:09.325Z,4.82
2022-09-14T08:28:36.506Z,5.25
2022-09-14T08:31:04.366Z,5.40
2022-09-14T08:33:36.048Z,5.22
2022-09-14T08:36:03.482Z,4.97
2022-09-14T08:38:30.705Z,5.03
2022-09-14T08:40:59.407Z,5.35
2022-09-14T08:43:27.312Z,5.15
2022-09-14T08:46:00.496Z,5.32
2022-09-14T08:48:31.839Z,6.53
2022-09-14T08:50:58.761Z,4.93
2022-09-14T08:53:26.217Z,5.47
2022-09-14T08:56:02.900Z,5.32
2022-09-14T08:58:58.594Z,6.30
2022-09-14T09:01:45.341Z,4.80
2022-09-14T09:04:12.166Z,6.10
2022-09-14T09:07:13.125Z,5.43
2022-09-14T09:09:52.519Z,5.55
2022-09-14T09:12:25.140Z,5.72
2022-09-14T09:14:51.889Z,5.85
2022-09-14T09:17:27.784Z,4.87
2022-09-14T09:20:18.137Z,4.97
2022-09-14T09:23:12.304Z,4.95
2022-09-14T09:25:46.014Z,5.07
2022-09-14T09:30:41.395Z,5.18
2022-09-14T09:33:17.047Z,5.20
2022-09-14T09:35:45.046Z,4.55
2022-09-14T09:38:19.084Z,4.68
2022-09-14T09:40:49.413Z,4.72
2022-09-14T09:43:38.543Z,5.40
2022-09-14T09:46:07.753Z,5.43
2022-09-14T09:48:38.134Z,4.97
2022-09-14T09:51:18.124Z,4.87
2022-09-14T09:53:51.537Z,4.37
2022-09-14T09:56:30.226Z,4.70
2022-09-14T09:58:59.870Z,5.20
2022-09-14T10:01:35.796Z,5.10
2022-09-14T10:04:18.991Z,5.57
2022-09-14T10:06:55.912Z,5.28
2022-09-14T10:09:28.039Z,5.07
2022-09-14T10:12:05.076Z,6.12
2022-09-14T10:14:35.463Z,5.47
2022-09-14T10:19:52.300Z,4.87
2022-09-14T10:22:34.060Z,4.87
2022-09-14T10:25:22.955Z,4.90
2022-09-14T10:27:56.160Z,5.30
2022-09-14T10:30:39.727Z,4.68
2022-09-14T10:33:10.968Z,4.53
2022-09-14T10:35:41.382Z,4.43
2022-09-14T10:38:46.970Z,4.32
2022-09-14T10:41:33.606Z,4.15
2022-09-14T10:44:07.626Z,4.87
2022-09-14T10:46:52.782Z,5.40
2022-09-14T10:49:39.189Z,4.90
2022-09-14T10:52:21.372Z,4.72
2022-09-14T10:54:58.037Z,4.47
2022-09-14T10:57:31.283Z,4.65
2022-09-14T11:00:24.783Z,4.97
2022-09-14T11:02:52.103Z,4.18
2022-09-14T11:05:35.689Z,4.03
2022-09-14T11:10:57.830Z,5.55
2022-09-14T11:13:51.188Z,5.62
2022-09-14T11:16:50.664Z,5.37
2022-09-14T11:19:46.856Z,5.32
2022-09-14T11:22:44.843Z,4.72
2022-09-14T11:25:17.865Z,4.70
2022-09-14T11:27:46.689Z,5.43
2022-09-14T11:30:20.383Z,5.20
2022-09-14T11:32:52.155Z,4.90
2022-09-14T11:35:23.127Z,4.57
2022-09-14T11:37:57.265Z,4.68
2022-09-14T11:40:29.083Z,4.60
2022-09-14T11:43:00.998Z,4.95
2022-09-14T11:45:35.843Z,4.62
2022-09-14T11:48:46.441Z,3.78
2022-09-14T11:51:36.253Z,4.70
2022-09-14T11:54:03.755Z,4.35
2022-09-14T11:56:32.739Z,4.10
2022-09-14T11:59:03.587Z,3.87
2022-09-14T12:01:33.813Z,3.28
2022-09-14T12:04:01.147Z,2.62
2022-09-14T12:06:31.190Z,2.90
2022-09-14T12:09:25.132Z,2.53
2022-09-14T12:11:58.542Z,2.80
2022-09-14T12:14:28.806Z,2.80
2022-09-14T12:17:38.393Z,3.00
2022-09-14T12:20:31.877Z,3.42
2022-09-14T12:23:20.680Z,2.65
2022-09-14T12:26:00.314Z,2.62
2022-09-14T12:28:38.051Z,2.90
2022-09-14T12:31:11.613Z,4.47
2022-09-14T12:33:38.904Z,2.42
2022-09-14T12:36:12.606Z,2.60
2022-09-14T12:38:42.458Z,3.00
2022-09-14T12:41:15.386Z,2.20
2022-09-14T12:43:50.344Z,2.15
2022-09-14T12:46:20.376Z,1.83
2022-09-14T12:48:47.765Z,1.95
2022-09-14T12:51:20.974Z,2.30
2022-09-14T12:54:06.791Z,2.33
2022-09-14T12:56:36.924Z,1.87
2022-09-14T12:59:23.055Z,2.33
2022-09-14T13:02:25.047Z,1.87
2022-09-14T13:04:57.705Z,1.90
2022-09-14T13:07:30.404Z,2.78
2022-09-14T13:09:58.665Z,1.98
2022-09-14T13:12:34.458Z,2.47
2022-09-14T13:15:18.429Z,1.83
2022-09-14T13:20:32.025Z,1.70
2022-09-14T13:22:59.439Z,1.87
2022-09-14T13:25:35.592Z,2.05
2022-09-14T13:28:07.932Z,2.47
2022-09-14T13:30:36.004Z,2.10
2022-09-14T13:33:05.001Z,1.90
2022-09-14T13:35:47.943Z,2.10
2022-09-14T13:38:33.254Z,2.53
2022-09-14T13:41:16.739Z,2.10
2022-09-14T13:43:44.849Z,2.55
2022-09-14T13:46:12.010Z,1.92
2022-09-14T13:48:40.782Z,2.00
2022-09-14T13:51:09.420Z,1.90
2022-09-14T13:53:51.646Z,2.10
2022-09-14T13:56:26.473Z,3.03
2022-09-14T13:59:09.164Z,2.17
2022-09-14T14:01:39.323Z,1.90
2022-09-14T14:04:19.112Z,1.80
2022-09-14T14:06:46.235Z,2.00
2022-09-14T14:09:14.523Z,2.08
2022-09-14T14:11:51.854Z,1.85
2022-09-14T14:14:28.854Z,2.03
2022-09-14T14:17:13.283Z,1.70
2022-09-14T14:19:41.055Z,2.12
2022-09-14T14:22:14.136Z,1.92
2022-09-14T14:27:31.631Z,1.90
2022-09-14T14:30:00.586Z,1.95
2022-09-14T14:32:28.856Z,2.00
2022-09-14T14:34:58.847Z,2.12
2022-09-14T14:37:26.160Z,2.10
2022-09-14T14:39:53.252Z,1.80
2022-09-14T14:42:20.348Z,2.83
2022-09-14T14:44:47.656Z,2.00
2022-09-14T14:47:14.988Z,2.22
2022-09-14T14:49:42.348Z,1.90
2022-09-14T14:52:09.999Z,2.78
2022-09-14T14:54:37.043Z,2.50
2022-09-14T14:57:04.429Z,2.00
2022-09-14T14:59:32.545Z,1.95
2022-09-14T15:01:59.656Z,2.47
2022-09-14T15:04:26.893Z,2.40
2022-09-14T15:06:54.433Z,2.28
2022-09-14T15:09:27.411Z,2.40
2022-09-14T15:11:54.819Z,2.20
2022-09-14T15:14:26.960Z,2.22
2022-09-14T15:16:59.712Z,2.45
2022-09-14T15:19:27.115Z,2.20
2022-09-14T15:22:00.048Z,2.35
2022-09-14T15:24:28.732Z,2.10
2022-09-14T15:26:56.051Z,2.10
2022-09-14T15:29:23.063Z,2.40
2022-09-14T15:31:50.179Z,2.80
2022-09-14T15:34:17.510Z,2.50
2022-09-14T15:36:52.771Z,2.28
2022-09-14T15:39:25.097Z,2.30
2022-09-14T15:41:52.658Z,2.17
2022-09-14T15:44:20.484Z,2.00
2022-09-14T15:46:48.000Z,2.10
2022-09-14T15:49:20.580Z,2.12
2022-09-14T15:51:50.140Z,2.60
2022-09-14T15:54:18.439Z,3.33
2022-09-14T15:57:06.235Z,3.08
2022-09-14T15:59:33.640Z,3.37
2022-09-14T16:02:01.017Z,3.20
2022-09-14T16:04:28.530Z,2.80
2022-09-14T16:06:55.536Z,2.90
2022-09-14T16:09:23.158Z,2.90
2022-09-14T16:11:50.458Z,2.90
2022-09-14T16:14:17.489Z,2.75
2022-09-14T16:16:44.514Z,3.30
2022-09-14T16:19:13.782Z,2.53
2022-09-14T16:21:41.832Z,2.28
2022-09-14T16:24:13.414Z,3.08
2022-09-14T16:26:41.747Z,2.37
2022-09-14T16:29:14.019Z,2.60
2022-09-14T16:31:43.607Z,2.47
2022-09-14T16:34:26.115Z,2.58
2022-09-14T16:36:53.882Z,2.50
2022-09-14T16:39:28.518Z,2.55
2022-09-14T16:41:55.951Z,2.72
2022-09-14T16:44:25.071Z,2.40
2022-09-14T16:46:53.836Z,2.50
2022-09-14T16:49:27.061Z,2.37
2022-09-14T16:51:55.394Z,2.47
2022-09-14T16:54:23.763Z,2.47
2022-09-14T16:56:50.843Z,2.47
2022-09-14T16:59:19.361Z,2.67
2022-09-14T17:01:51.937Z,2.47
2022-09-14T17:04:22.103Z,2.55
2022-09-14T17:06:50.565Z,2.80
2022-09-14T17:09:20.756Z,2.75
2022-09-14T17:11:48.632Z,2.97
2022-09-14T17:14:18.093Z,3.55
2022-09-14T17:16:45.853Z,3.10
2022-09-14T17:19:13.372Z,2.87
2022-09-14T17:21:42.541Z,3.20
2022-09-14T17:24:10.349Z,3.05
2022-09-14T17:26:37.639Z,3.40
2022-09-14T17:29:05.524Z,3.80
2022-09-14T17:31:36.208Z,3.35
2022-09-14T17:34:04.871Z,3.20
2022-09-14T17:36:32.366Z,3.67
2022-09-14T17:39:02.353Z,3.72
2022-09-14T17:41:31.571Z,4.10
2022-09-14T17:44:01.289Z,4.07
2022-09-14T17:46:29.331Z,3.70
2022-09-14T17:48:58.457Z,4.10
2022-09-14T17:51:27.899Z,4.85
2022-09-14T17:53:56.752Z,4.60
2022-09-14T17:56:26.312Z,4.05
2022-09-14T17:59:14.112Z,4.30
2022-09-14T18:01:41.172Z,4.75
2022-09-14T18:04:13.341Z,4.45
2022-09-14T18:06:43.787Z,4.25
2022-09-14T18:09:20.631Z,4.30
2022-09-14T18:11:48.984Z,3.95
2022-09-14T18:14:16.584Z,4.20
2022-09-14T18:16:44.592Z,4.25
2022-09-14T18:19:11.695Z,4.22
2022-09-14T18:21:39.334Z,4.30
2022-09-14T18:24:06.375Z,3.62
2022-09-14T18:26:33.357Z,3.95
2022-09-14T18:29:00.721Z,4.22
2022-09-14T18:31:27.939Z,3.47
2022-09-14T18:33:59.259Z,3.78
2022-09-14T18:36:29.509Z,3.53
2022-09-14T18:38:58.253Z,4.22
2022-09-14T18:41:25.288Z,3.90
2022-09-14T18:43:53.312Z,4.55
2022-09-14T18:46:24.446Z,4.03
2022-09-14T18:48:57.999Z,4.10
2022-09-14T18:51:25.640Z,4.40
2022-09-14T18:54:03.130Z,4.70
2022-09-14T18:56:33.219Z,3.85
2022-09-14T18:59:01.445Z,4.57
2022-09-14T19:01:28.580Z,4.37
2022-09-14T19:03:56.507Z,4.05
2022-09-14T19:06:23.610Z,4.07
2022-09-14T19:08:50.881Z,4.12
2022-09-14T19:11:20.736Z,4.05
2022-09-14T19:13:48.623Z,4.53
2022-09-14T19:16:17.760Z,4.50
2022-09-14T19:18:46.487Z,4.07
2022-09-14T19:21:23.629Z,4.20
2022-09-14T19:24:00.344Z,4.18
2022-09-14T19:26:31.421Z,4.53
2022-09-14T19:29:03.469Z,5.05
2022-09-14T19:31:31.116Z,5.57
2022-09-14T19:33:59.351Z,5.10
2022-09-14T19:36:27.496Z,4.80
2022-09-14T19:38:57.293Z,5.35
2022-09-14T19:41:25.505Z,5.28
2022-09-14T19:43:52.618Z,5.72
2022-09-14T19:46:23.283Z,5.53
2022-09-14T19:48:51.651Z,7.10
2022-09-14T19:51:21.264Z,17.00
2022-09-14T19:53:49.992Z,32.28
2022-09-14T19:56:19.727Z,28.25
2022-09-14T19:58:48.995Z,24.60
2022-09-14T20:01:18.548Z,17.60
2022-09-14T20:03:46.548Z,15.75
2022-09-14T20:06:20.948Z,10.38
2022-09-14T20:09:12.309Z,8.07
2022-09-14T20:11:40.754Z,7.37
2022-09-14T20:14:12.013Z,7.87
2022-09-14T20:16:47.970Z,7.60
2022-09-14T20:19:21.249Z,6.93
2022-09-14T20:21:50.599Z,4.95
2022-09-14T20:24:26.195Z,5.70
2022-09-14T20:26:55.732Z,5.18
2022-09-14T20:29:24.629Z,5.10
2022-09-14T20:31:52.365Z,4.53
2022-09-14T20:34:20.809Z,5.15
2022-09-14T20:36:49.630Z,4.68
2022-09-14T20:39:16.989Z,4.32
2022-09-14T20:41:44.261Z,4.10
2022-09-14T20:44:11.994Z,4.00
2022-09-14T20:46:43.831Z,3.97
2022-09-14T20:49:13.238Z,4.35
2022-09-14T20:51:41.203Z,4.28
2022-09-14T20:54:11.357Z,3.50
2022-09-14T20:56:38.994Z,4.10
2022-09-14T20:59:08.404Z,3.70
2022-09-14T21:01:37.308Z,4.05
2022-09-14T21:04:19.337Z,3.62
2022-09-14T21:06:48.652Z,3.30
2022-09-14T21:09:18.146Z,3.70
2022-09-14T21:11:46.078Z,3.95
2022-09-14T21:14:14.891Z,3.25
2022-09-14T21:16:44.068Z,3.30
2022-09-14T21:19:17.799Z,3.30
2022-09-14T21:21:53.654Z,3.05
2022-09-14T21:24:21.713Z,3.10
2022-09-14T21:26:49.092Z,3.20
2022-09-14T21:29:20.240Z,3.10
2022-09-14T21:31:48.767Z,2.95
2022-09-14T21:34:16.295Z,3.85
2022-09-14T21:36:45.963Z,2.70
2022-09-14T21:39:20.336Z,3.10
2022-09-14T21:41:49.049Z,3.08
2022-09-14T21:44:16.467Z,2.72
2022-09-14T21:46:43.613Z,3.03
2022-09-14T21:49:16.788Z,2.50
2022-09-14T21:51:44.407Z,2.83
2022-09-14T21:54:12.843Z,2.55
2022-09-14T21:56:42.704Z,3.22
2022-09-14T21:59:19.468Z,3.53
2022-09-14T22:01:50.049Z,2.80
2022-09-14T22:04:20.265Z,3.22
2022-09-14T22:06:47.624Z,2.65
2022-09-14T22:09:16.032Z,3.05
2022-09-14T22:11:44.004Z,3.03
2022-09-14T22:14:14.769Z,3.00
2022-09-14T22:16:42.470Z,2.62
2022-09-14T22:19:28.164Z,2.80
2022-09-14T22:21:55.277Z,2.92
2022-09-14T22:24:33.513Z,2.72
2022-09-14T22:27:04.220Z,2.67
2022-09-14T22:29:31.995Z,3.00
2022-09-14T22:32:00.233Z,2.80
2022-09-14T22:34:28.585Z,3.20
2022-09-14T22:36:56.297Z,2.80
2022-09-14T22:40:00.659Z,2.75
2022-09-14T22:42:46.406Z,3.53
2022-09-14T22:45:13.957Z,3.00
2022-09-14T22:47:41.546Z,2.60
2022-09-14T22:50:09.237Z,3.00
2022-09-14T22:52:36.946Z,3.03
2022-09-14T22:55:04.553Z,3.00
2022-09-14T22:57:31.911Z,2.70
2022-09-14T22:59:59.206Z,2.78
2022-09-14T23:02:26.480Z,2.80
2022-09-14T23:04:53.665Z,2.85
2022-09-14T23:07:20.939Z,3.15
2022-09-14T23:09:48.582Z,2.62
2022-09-14T23:12:15.585Z,3.22
2022-09-14T23:14:42.861Z,2.97
2022-09-14T23:17:10.092Z,2.80
2022-09-14T23:19:37.145Z,2.87
2022-09-14T23:22:04.877Z,2.72
2022-09-14T23:24:31.882Z,2.30
2022-09-14T23:26:58.898Z,2.67
2022-09-14T23:29:26.201Z,3.10
2022-09-14T23:31:53.591Z,3.03
2022-09-14T23:34:20.959Z,2.80
2022-09-14T23:36:48.622Z,3.10
2022-09-14T23:39:15.934Z,4.35
2022-09-14T23:41:43.278Z,3.58
2022-09-14T23:44:12.709Z,3.30
2022-09-14T23:46:40.102Z,3.42
2022-09-14T23:49:07.160Z,4.20
2022-09-14T23:51:34.450Z,3.65
2022-09-14T23:54:01.448Z,4.18
2022-09-14T23:56:28.440Z,4.18
2022-09-14T23:58:56.155Z,4.50
